createdAt,value
2023-04-30T00:00:35.819Z,68.18
2023-04-30T00:03:04.330Z,68.31
2023-04-30T00:05:32.818Z,68.59
2023-04-30T00:08:02.077Z,68.19
2023-04-30T00:10:29.996Z,68.29
2023-04-30T00:12:58.048Z,68.35
2023-04-30T00:15:26.102Z,68.27
2023-04-30T00:17:54.108Z,68.43
2023-04-30T00:20:22.023Z,68.47
2023-04-30T00:22:49.935Z,68.49
2023-04-30T00:25:20.963Z,68.89
2023-04-30T00:27:48.924Z,68.99
2023-04-30T00:30:16.874Z,69.31
2023-04-30T00:32:45.967Z,69.14
2023-04-30T00:35:14.095Z,69.17
2023-04-30T00:37:42.090Z,69.18
2023-04-30T00:40:10.887Z,69.07
2023-04-30T00:42:40.083Z,69.62
2023-04-30T00:45:09.517Z,70.50
2023-04-30T00:47:37.801Z,70.57
2023-04-30T00:50:06.918Z,70.29
2023-04-30T00:52:34.952Z,71.12
2023-04-30T00:55:03.312Z,70.91
2023-04-30T00:57:31.781Z,71.31
2023-04-30T01:00:01.282Z,71.22
2023-04-30T01:02:31.379Z,71.56
2023-04-30T01:04:59.568Z,72.08
2023-04-30T01:07:28.366Z,74.23
2023-04-30T01:09:56.977Z,74.86
2023-04-30T01:12:34.340Z,75.47
2023-04-30T01:15:10.647Z,75.17
2023-04-30T01:17:42.870Z,74.96
2023-04-30T01:20:12.302Z,74.22
2023-04-30T01:22:48.410Z,73.94
2023-04-30T01:25:32.651Z,73.15
2023-04-30T01:28:10.307Z,72.67
2023-04-30T01:30:40.906Z,72.75
2023-04-30T01:33:09.289Z,72.41
2023-04-30T01:36:01.148Z,72.39
2023-04-30T01:38:45.696Z,72.55
2023-04-30T01:41:26.965Z,72.24
2023-04-30T01:44:07.434Z,71.53
2023-04-30T01:46:35.469Z,72.12
2023-04-30T01:49:13.168Z,72.57
2023-04-30T01:51:43.035Z,71.83
2023-04-30T01:54:22.457Z,71.25
2023-04-30T01:56:55.124Z,71.74
2023-04-30T01:59:24.670Z,71.95
2023-04-30T02:01:52.794Z,71.83
2023-04-30T02:04:20.908Z,71.48
2023-04-30T02:06:48.815Z,71.77
2023-04-30T02:09:16.814Z,71.84
2023-04-30T02:11:44.748Z,71.58
2023-04-30T02:14:12.672Z,72.85
2023-04-30T02:16:42.951Z,73.24
2023-04-30T02:19:12.410Z,73.75
2023-04-30T02:21:40.590Z,74.73
2023-04-30T02:24:08.518Z,74.40
2023-04-30T02:26:36.470Z,74.51
2023-04-30T02:29:04.436Z,74.93
2023-04-30T02:31:32.974Z,74.71
2023-04-30T02:34:02.374Z,73.50
2023-04-30T02:36:33.582Z,73.92
2023-04-30T02:39:01.432Z,73.69
2023-04-30T02:41:29.366Z,73.40
2023-04-30T02:43:57.314Z,72.50
2023-04-30T02:46:25.343Z,72.10
2023-04-30T02:48:53.328Z,72.74
2023-04-30T02:51:22.590Z,72.67
2023-04-30T02:53:50.662Z,72.03
2023-04-30T02:56:18.582Z,72.03
2023-04-30T02:58:46.552Z,72.07
2023-04-30T03:01:14.957Z,71.64
2023-04-30T03:03:42.952Z,71.50
2023-04-30T03:06:10.930Z,72.14
2023-04-30T03:08:40.303Z,71.10
2023-04-30T03:11:08.173Z,72.33
2023-04-30T03:13:36.063Z,71.72
2023-04-30T03:16:05.765Z,71.46
2023-04-30T03:18:34.054Z,71.70
2023-04-30T03:21:01.947Z,71.58
2023-04-30T03:23:30.173Z,73.69
2023-04-30T03:25:59.458Z,74.18
2023-04-30T03:28:27.435Z,74.06
2023-04-30T03:30:55.428Z,73.95
2023-04-30T03:33:23.501Z,74.78
2023-04-30T03:35:51.883Z,73.88
2023-04-30T03:38:19.870Z,72.96
2023-04-30T03:40:47.814Z,73.04
2023-04-30T03:43:17.106Z,73.38
2023-04-30T03:45:45.125Z,72.38
2023-04-30T03:48:13.106Z,72.99
2023-04-30T03:50:41.139Z,72.47
2023-04-30T03:53:09.064Z,72.65
2023-04-30T03:55:37.118Z,72.51
2023-04-30T03:58:05.417Z,71.51
2023-04-30T04:00:34.765Z,71.17
2023-04-30T04:03:02.901Z,70.29
2023-04-30T04:05:30.855Z,71.00
2023-04-30T04:07:58.771Z,70.81
2023-04-30T04:10:26.649Z,70.96
2023-04-30T04:12:54.622Z,70.21
2023-04-30T04:15:22.819Z,70.67
2023-04-30T04:17:52.333Z,70.24
2023-04-30T04:20:20.500Z,70.25
2023-04-30T04:22:48.978Z,70.22
2023-04-30T04:25:18.142Z,69.88
2023-04-30T04:27:46.299Z,70.07
2023-04-30T04:30:14.862Z,69.21
2023-04-30T04:32:48.198Z,69.09
2023-04-30T04:35:18.594Z,68.92
2023-04-30T04:37:46.544Z,68.79
2023-04-30T04:40:15.007Z,68.37
2023-04-30T04:42:43.063Z,68.77
2023-04-30T04:45:12.198Z,69.07
2023-04-30T04:47:40.391Z,68.60
2023-04-30T04:50:09.669Z,68.72
2023-04-30T04:52:39.080Z,68.66
2023-04-30T04:55:07.846Z,69.19
2023-04-30T04:57:37.472Z,68.45
2023-04-30T05:00:08.130Z,68.32
2023-04-30T05:02:36.246Z,67.85
2023-04-30T05:05:04.357Z,68.11
2023-04-30T05:07:32.369Z,67.37
2023-04-30T05:10:01.684Z,67.63
2023-04-30T05:12:29.643Z,67.95
2023-04-30T05:14:57.506Z,68.21
2023-04-30T05:17:25.612Z,69.04
2023-04-30T05:19:54.626Z,68.74
2023-04-30T05:22:23.039Z,69.37
2023-04-30T05:24:52.974Z,69.40
2023-04-30T05:27:22.192Z,69.14
2023-04-30T05:29:50.045Z,69.49
2023-04-30T05:32:17.942Z,69.44
2023-04-30T05:34:46.022Z,69.44
2023-04-30T05:37:15.049Z,69.48
2023-04-30T05:39:42.937Z,68.63
2023-04-30T05:42:10.813Z,68.21
2023-04-30T05:44:40.031Z,68.13
2023-04-30T05:47:08.124Z,68.32
2023-04-30T05:49:36.345Z,67.84
2023-04-30T05:52:04.578Z,67.65
2023-04-30T05:54:32.544Z,65.84
2023-04-30T05:57:00.555Z,65.50
2023-04-30T05:59:28.422Z,66.02
2023-04-30T06:01:58.265Z,66.01
2023-04-30T06:04:26.797Z,65.90
2023-04-30T06:06:54.718Z,65.85
2023-04-30T06:09:22.613Z,66.33
2023-04-30T06:11:52.126Z,64.97
2023-04-30T06:14:22.680Z,65.30
2023-04-30T06:16:50.890Z,62.92
2023-04-30T06:19:20.864Z,62.09
2023-04-30T06:21:48.755Z,61.33
2023-04-30T06:24:16.693Z,61.30
2023-04-30T06:26:44.633Z,61.33
2023-04-30T06:29:12.602Z,61.74
2023-04-30T06:31:40.580Z,61.08
2023-04-30T06:34:08.666Z,61.76
2023-04-30T06:36:37.916Z,61.66
2023-04-30T06:39:06.554Z,61.16
2023-04-30T06:41:34.451Z,61.40
2023-04-30T06:44:07.708Z,61.71
2023-04-30T06:46:36.371Z,62.04
2023-04-30T06:49:04.338Z,61.18
2023-04-30T06:51:32.499Z,61.59
2023-04-30T06:54:01.714Z,61.43
2023-04-30T06:56:29.570Z,61.14
2023-04-30T06:58:57.436Z,60.45
2023-04-30T07:01:25.424Z,60.64
2023-04-30T07:03:55.059Z,60.53
2023-04-30T07:06:23.245Z,60.20
2023-04-30T07:08:51.216Z,60.08
2023-04-30T07:11:20.497Z,60.22
2023-04-30T07:13:48.478Z,59.37
2023-04-30T07:16:17.172Z,59.26
2023-04-30T07:18:48.715Z,59.20
2023-04-30T07:21:16.584Z,59.05
2023-04-30T07:23:45.550Z,58.82
2023-04-30T07:26:13.489Z,58.68
2023-04-30T07:28:42.738Z,58.90
2023-04-30T07:31:10.692Z,58.30
2023-04-30T07:33:38.526Z,57.64
2023-04-30T07:36:07.249Z,56.22
2023-04-30T07:38:35.180Z,55.02
2023-04-30T07:41:03.555Z,55.36
2023-04-30T07:43:31.993Z,55.00
2023-04-30T07:46:01.406Z,54.52
2023-04-30T07:48:29.388Z,54.14
2023-04-30T07:50:57.559Z,54.00
2023-04-30T07:53:25.389Z,53.34
2023-04-30T07:55:53.304Z,53.75
2023-04-30T07:58:21.159Z,53.86
2023-04-30T08:00:49.023Z,54.80
2023-04-30T08:03:20.057Z,54.62
2023-04-30T08:05:48.297Z,55.21
2023-04-30T08:08:16.157Z,54.29
2023-04-30T08:10:43.998Z,53.07
2023-04-30T08:13:11.900Z,52.50
2023-04-30T08:15:40.164Z,52.87
2023-04-30T08:18:08.180Z,52.15
2023-04-30T08:20:38.608Z,52.42
2023-04-30T08:23:06.806Z,52.03
2023-04-30T08:25:34.723Z,51.81
2023-04-30T08:28:02.688Z,51.99
2023-04-30T08:30:30.635Z,52.27
2023-04-30T08:32:59.265Z,52.78
2023-04-30T08:35:29.602Z,50.87
2023-04-30T08:37:58.812Z,50.47
2023-04-30T08:40:43.445Z,49.87
2023-04-30T08:43:16.571Z,49.31
2023-04-30T08:45:44.599Z,49.11
2023-04-30T08:48:14.088Z,48.98
2023-04-30T08:50:42.077Z,48.39
2023-04-30T08:53:11.831Z,48.91
2023-04-30T08:55:40.842Z,47.92
2023-04-30T08:58:10.360Z,46.93
2023-04-30T09:00:39.776Z,47.22
2023-04-30T09:03:09.136Z,47.63
2023-04-30T09:05:38.141Z,47.48
2023-04-30T09:08:08.479Z,47.45
2023-04-30T09:10:38.051Z,47.93
2023-04-30T09:13:07.741Z,46.93
2023-04-30T09:15:37.168Z,47.00
2023-04-30T09:18:10.248Z,46.84
2023-04-30T09:20:38.600Z,46.35
2023-04-30T09:23:08.720Z,46.33
2023-04-30T09:25:42.533Z,46.01
2023-04-30T09:28:11.731Z,46.43
2023-04-30T09:30:40.244Z,45.74
2023-04-30T09:33:11.325Z,45.87
2023-04-30T09:35:41.818Z,45.94
2023-04-30T09:38:27.282Z,45.38
2023-04-30T09:40:57.161Z,44.78
2023-04-30T09:43:25.146Z,46.18
2023-04-30T09:45:53.942Z,45.93
2023-04-30T09:48:23.186Z,45.33
2023-04-30T09:50:51.668Z,45.03
2023-04-30T09:53:20.483Z,45.30
2023-04-30T09:55:49.854Z,44.87
2023-04-30T09:58:20.571Z,43.92
2023-04-30T10:00:49.535Z,44.69
2023-04-30T10:03:17.551Z,44.57
2023-04-30T10:05:48.140Z,45.30
2023-04-30T10:08:22.863Z,44.98
2023-04-30T10:10:55.335Z,44.74
2023-04-30T10:13:31.385Z,44.56
2023-04-30T10:16:03.195Z,44.13
2023-04-30T10:18:35.718Z,43.75
2023-04-30T10:21:05.716Z,44.10
2023-04-30T10:23:34.181Z,44.12
2023-04-30T10:26:02.481Z,44.05
2023-04-30T10:28:33.286Z,44.21
2023-04-30T10:31:02.025Z,43.86
2023-04-30T10:33:37.578Z,44.04
2023-04-30T10:36:09.185Z,43.71
2023-04-30T10:38:39.009Z,43.99
2023-04-30T10:41:09.573Z,44.07
2023-04-30T10:43:39.232Z,43.76
2023-04-30T10:46:07.172Z,43.98
2023-04-30T10:48:36.102Z,42.99
2023-04-30T10:51:04.281Z,42.89
2023-04-30T10:53:33.802Z,42.66
2023-04-30T10:56:06.754Z,43.11
2023-04-30T10:58:36.445Z,43.07
2023-04-30T11:01:12.572Z,44.09
2023-04-30T11:03:43.578Z,44.60
2023-04-30T11:06:13.384Z,42.76
2023-04-30T11:08:45.521Z,42.69
2023-04-30T11:11:21.225Z,43.55
2023-04-30T11:13:58.856Z,42.68
2023-04-30T11:16:30.857Z,43.27
2023-04-30T11:19:07.828Z,43.78
2023-04-30T11:21:41.559Z,44.13
2023-04-30T11:24:09.537Z,44.27
2023-04-30T11:27:04.425Z,45.29
2023-04-30T11:29:33.627Z,45.61
2023-04-30T11:32:05.009Z,45.23
2023-04-30T11:34:32.869Z,46.32
2023-04-30T11:37:01.474Z,46.06
2023-04-30T11:39:29.925Z,46.27
2023-04-30T11:41:58.128Z,45.36
2023-04-30T11:44:27.476Z,46.16
2023-04-30T11:46:56.019Z,46.07
2023-04-30T11:49:25.401Z,45.63
2023-04-30T11:51:53.385Z,46.19
2023-04-30T11:54:21.337Z,45.88
2023-04-30T11:56:49.877Z,45.83
2023-04-30T11:59:18.808Z,46.97
2023-04-30T12:01:46.875Z,46.05
2023-04-30T12:04:15.111Z,45.28
2023-04-30T12:06:44.723Z,46.26
2023-04-30T12:09:12.985Z,45.96
2023-04-30T12:11:40.973Z,45.45
2023-04-30T12:14:10.937Z,45.71
2023-04-30T12:16:45.580Z,45.58
2023-04-30T12:19:13.993Z,45.71
2023-04-30T12:21:46.518Z,45.59
2023-04-30T12:24:14.532Z,45.55
2023-04-30T12:26:43.047Z,45.13
2023-04-30T12:29:15.094Z,45.67
2023-04-30T12:31:44.298Z,45.18
2023-04-30T12:34:14.749Z,44.71
2023-04-30T12:36:44.122Z,43.98
2023-04-30T12:39:13.104Z,44.59
2023-04-30T12:41:42.607Z,44.20
2023-04-30T12:44:21.643Z,43.86
2023-04-30T12:46:50.852Z,44.52
2023-04-30T12:49:26.404Z,43.51
2023-04-30T12:52:01.355Z,44.19
2023-04-30T12:54:30.300Z,43.44
2023-04-30T12:57:03.467Z,43.37
2023-04-30T12:59:32.454Z,43.02
2023-04-30T13:02:08.537Z,42.84
2023-04-30T13:04:37.153Z,42.40
2023-04-30T13:07:06.548Z,42.97
2023-04-30T13:09:35.154Z,42.48
2023-04-30T13:12:03.182Z,42.68
2023-04-30T13:14:31.993Z,42.75
2023-04-30T13:17:00.378Z,43.01
2023-04-30T13:19:29.302Z,42.59
2023-04-30T13:21:58.530Z,42.04
2023-04-30T13:24:27.845Z,42.18
2023-04-30T13:26:57.782Z,42.66
2023-04-30T13:29:26.219Z,42.80
2023-04-30T13:31:54.185Z,42.39
2023-04-30T13:34:22.582Z,41.55
2023-04-30T13:36:52.050Z,41.67
2023-04-30T13:39:21.873Z,40.93
2023-04-30T13:41:51.262Z,40.69
2023-04-30T13:44:19.137Z,41.02
2023-04-30T13:46:47.105Z,40.63
2023-04-30T13:49:15.137Z,40.23
2023-04-30T13:51:43.140Z,39.94
2023-04-30T13:54:11.015Z,40.18
2023-04-30T13:56:39.106Z,40.25
2023-04-30T13:59:08.448Z,41.14
2023-04-30T14:01:36.523Z,40.87
2023-04-30T14:04:04.777Z,41.03
2023-04-30T14:06:33.045Z,40.29
2023-04-30T14:09:01.058Z,40.27
2023-04-30T14:11:28.995Z,39.95
2023-04-30T14:13:57.211Z,39.36
2023-04-30T14:16:27.298Z,39.31
2023-04-30T14:18:55.374Z,39.72
2023-04-30T14:21:23.201Z,39.02
2023-04-30T14:23:52.142Z,39.58
2023-04-30T14:26:20.057Z,39.12
2023-04-30T14:28:47.986Z,38.70
2023-04-30T14:31:15.906Z,39.10
2023-04-30T14:33:45.575Z,38.19
2023-04-30T14:36:13.845Z,38.51
2023-04-30T14:38:41.880Z,38.71
2023-04-30T14:41:09.850Z,38.13
2023-04-30T14:43:37.728Z,38.27
2023-04-30T14:46:06.142Z,38.26
2023-04-30T14:48:34.534Z,38.58
2023-04-30T14:51:03.793Z,37.94
2023-04-30T14:53:31.825Z,37.65
2023-04-30T14:55:59.741Z,37.87
2023-04-30T14:58:27.619Z,36.99
2023-04-30T15:00:55.702Z,37.51
2023-04-30T15:03:23.658Z,36.85
2023-04-30T15:05:51.734Z,37.25
2023-04-30T15:08:21.036Z,36.98
2023-04-30T15:10:49.053Z,36.73
2023-04-30T15:13:17.024Z,36.46
2023-04-30T15:15:47.025Z,36.72
2023-04-30T15:18:15.662Z,35.66
2023-04-30T15:20:43.588Z,36.16
2023-04-30T15:23:12.566Z,36.09
2023-04-30T15:25:43.010Z,35.99
2023-04-30T15:28:11.227Z,35.63
2023-04-30T15:30:39.347Z,35.76
2023-04-30T15:33:07.305Z,34.48
2023-04-30T15:35:35.821Z,34.83
2023-04-30T15:38:03.753Z,34.85
2023-04-30T15:40:31.626Z,35.27
2023-04-30T15:43:00.904Z,34.91
2023-04-30T15:45:29.438Z,35.14
2023-04-30T15:47:57.464Z,35.02
2023-04-30T15:50:25.422Z,35.02
2023-04-30T15:52:53.352Z,34.72
2023-04-30T15:55:21.226Z,35.44
2023-04-30T15:57:49.180Z,35.68
2023-04-30T16:00:18.891Z,35.22
2023-04-30T16:02:46.942Z,34.85
2023-04-30T16:05:14.891Z,34.85
2023-04-30T16:07:44.035Z,34.87
2023-04-30T16:10:13.276Z,34.88
2023-04-30T16:12:41.263Z,34.80
2023-04-30T16:15:10.777Z,34.89
2023-04-30T16:17:40.047Z,34.89
2023-04-30T16:20:09.280Z,34.86
2023-04-30T16:22:37.993Z,35.25
2023-04-30T16:25:07.650Z,35.70
2023-04-30T16:27:37.534Z,35.03
2023-04-30T16:30:07.415Z,34.97
2023-04-30T16:32:35.341Z,35.11
2023-04-30T16:35:06.018Z,35.19
2023-04-30T16:37:34.027Z,35.03
2023-04-30T16:40:01.988Z,34.33
2023-04-30T16:42:30.129Z,34.32
2023-04-30T16:44:58.118Z,34.34
2023-04-30T16:47:26.240Z,35.06
2023-04-30T16:49:55.494Z,35.01
2023-04-30T16:52:25.045Z,35.07
2023-04-30T16:54:52.882Z,35.42
2023-04-30T16:57:21.146Z,35.48
2023-04-30T16:59:49.009Z,35.41
2023-04-30T17:02:16.921Z,35.58
2023-04-30T17:04:44.866Z,35.48
2023-04-30T17:07:13.693Z,35.63
2023-04-30T17:09:42.908Z,35.47
2023-04-30T17:12:11.246Z,35.14
2023-04-30T17:14:39.115Z,35.57
2023-04-30T17:17:07.711Z,35.84
2023-04-30T17:19:35.617Z,36.03
2023-04-30T17:22:04.108Z,36.43
2023-04-30T17:24:31.990Z,36.99
2023-04-30T17:27:01.173Z,37.72
2023-04-30T17:29:29.019Z,38.02
2023-04-30T17:31:57.130Z,38.52
2023-04-30T17:34:25.082Z,39.35
2023-04-30T17:36:52.902Z,39.89
2023-04-30T17:39:20.774Z,39.73
2023-04-30T17:41:48.623Z,40.43
2023-04-30T17:44:18.102Z,40.70
2023-04-30T17:46:46.302Z,40.75
2023-04-30T17:49:14.157Z,40.98
2023-04-30T17:51:42.097Z,40.88
2023-04-30T17:54:10.084Z,41.01
2023-04-30T17:56:38.784Z,41.15
2023-04-30T17:59:07.515Z,41.63
2023-04-30T18:01:37.415Z,41.27
2023-04-30T18:04:09.046Z,41.49
2023-04-30T18:06:37.133Z,41.42
2023-04-30T18:09:04.990Z,41.57
2023-04-30T18:11:33.736Z,41.96
2023-04-30T18:14:02.082Z,42.26
2023-04-30T18:16:30.063Z,42.36
2023-04-30T18:18:59.382Z,42.76
2023-04-30T18:21:27.441Z,42.74
2023-04-30T18:23:55.348Z,43.07
2023-04-30T18:26:24.150Z,42.81
2023-04-30T18:28:52.788Z,43.13
2023-04-30T18:31:20.888Z,43.53
2023-04-30T18:33:48.879Z,43.39
2023-04-30T18:36:18.375Z,43.96
2023-04-30T18:38:46.715Z,44.00
2023-04-30T18:41:14.678Z,44.43
2023-04-30T18:43:43.214Z,44.70
2023-04-30T18:46:11.115Z,44.70
2023-04-30T18:48:39.057Z,44.84
2023-04-30T18:51:06.962Z,44.89
2023-04-30T18:53:37.014Z,44.96
2023-04-30T18:56:05.726Z,44.59
2023-04-30T18:58:33.683Z,44.61
2023-04-30T19:01:01.690Z,45.08
2023-04-30T19:03:30.440Z,44.90
2023-04-30T19:05:58.682Z,45.03
2023-04-30T19:08:26.698Z,44.94
2023-04-30T19:10:56.797Z,45.71
2023-04-30T19:13:24.854Z,45.84
2023-04-30T19:15:53.704Z,45.87
2023-04-30T19:18:24.565Z,45.88
2023-04-30T19:20:57.940Z,45.88
2023-04-30T19:23:25.772Z,46.09
2023-04-30T19:25:53.684Z,46.12
2023-04-30T19:28:22.944Z,46.18
2023-04-30T19:30:54.287Z,46.29
2023-04-30T19:33:22.468Z,46.34
2023-04-30T19:35:50.629Z,46.49
2023-04-30T19:38:18.842Z,46.59
2023-04-30T19:40:47.647Z,46.63
2023-04-30T19:43:15.680Z,46.74
2023-04-30T19:45:51.771Z,46.83
2023-04-30T19:48:22.126Z,47.08
2023-04-30T19:50:51.464Z,47.12
2023-04-30T19:53:19.657Z,47.66
2023-04-30T19:55:47.801Z,47.32
2023-04-30T19:58:15.831Z,47.33
2023-04-30T20:00:45.970Z,47.45
2023-04-30T20:03:16.931Z,46.97
2023-04-30T20:05:46.139Z,47.45
2023-04-30T20:08:13.982Z,47.72
2023-04-30T20:10:42.746Z,47.67
2023-04-30T20:13:11.262Z,47.73
2023-04-30T20:15:39.113Z,47.76
2023-04-30T20:18:07.052Z,47.57
2023-04-30T20:20:36.394Z,47.75
2023-04-30T20:23:13.975Z,47.50
2023-04-30T20:25:45.248Z,47.59
2023-04-30T20:28:13.914Z,47.63
2023-04-30T20:30:43.102Z,47.68
2023-04-30T20:33:11.488Z,47.95
2023-04-30T20:35:41.760Z,47.84
2023-04-30T20:38:09.776Z,47.73
2023-04-30T20:40:40.136Z,47.44
2023-04-30T20:43:08.429Z,47.57
2023-04-30T20:45:36.715Z,47.38
2023-04-30T20:48:05.659Z,47.26
2023-04-30T20:50:33.722Z,47.30
2023-04-30T20:53:03.155Z,47.44
2023-04-30T20:55:31.077Z,47.81
2023-04-30T20:57:59.024Z,48.11
2023-04-30T21:00:27.763Z,48.23
2023-04-30T21:02:55.818Z,48.86
2023-04-30T21:05:23.911Z,49.24
2023-04-30T21:07:52.283Z,49.70
2023-04-30T21:10:21.689Z,49.81
2023-04-30T21:12:49.619Z,49.94
2023-04-30T21:15:17.711Z,50.15
2023-04-30T21:17:45.665Z,50.43
2023-04-30T21:20:14.163Z,50.06
2023-04-30T21:22:42.285Z,49.62
2023-04-30T21:25:12.210Z,49.48
2023-04-30T21:27:41.428Z,49.40
2023-04-30T21:30:10.266Z,49.56
2023-04-30T21:32:38.253Z,49.87
2023-04-30T21:35:07.025Z,49.92
2023-04-30T21:37:34.965Z,50.48
2023-04-30T21:40:03.720Z,50.24
2023-04-30T21:42:31.665Z,50.33
2023-04-30T21:45:00.920Z,50.66
2023-04-30T21:47:28.963Z,50.64
2023-04-30T21:49:57.216Z,50.46
2023-04-30T21:52:25.270Z,50.11
2023-04-30T21:54:53.210Z,49.62
2023-04-30T21:57:21.508Z,49.95
2023-04-30T21:59:49.309Z,49.94
2023-04-30T22:02:23.829Z,50.18
2023-04-30T22:04:53.387Z,49.94
2023-04-30T22:07:21.496Z,50.10
2023-04-30T22:09:49.322Z,50.17
2023-04-30T22:12:19.241Z,50.27
2023-04-30T22:14:49.769Z,50.05
2023-04-30T22:17:18.935Z,50.60
2023-04-30T22:19:46.813Z,50.53
2023-04-30T22:22:14.691Z,51.02
2023-04-30T22:24:42.546Z,50.61
2023-04-30T22:27:10.650Z,50.77
2023-04-30T22:29:38.594Z,50.82
2023-04-30T22:32:07.397Z,50.88
2023-04-30T22:34:40.117Z,51.04
2023-04-30T22:37:10.423Z,50.53
2023-04-30T22:39:38.711Z,50.66
2023-04-30T22:42:07.098Z,50.68
2023-04-30T22:44:35.001Z,50.61
2023-04-30T22:47:03.840Z,50.36
2023-04-30T22:49:32.439Z,50.67
2023-04-30T22:52:01.856Z,50.65
2023-04-30T22:54:30.043Z,50.49
2023-04-30T22:56:58.500Z,50.84
2023-04-30T22:59:26.469Z,51.56
2023-04-30T23:01:54.560Z,52.18
2023-04-30T23:04:22.543Z,52.07
2023-04-30T23:06:50.573Z,52.03
2023-04-30T23:09:19.871Z,52.06
2023-04-30T23:11:48.266Z,52.10
2023-04-30T23:14:16.309Z,52.25
2023-04-30T23:16:44.303Z,52.23
2023-04-30T23:19:12.322Z,52.47
2023-04-30T23:21:40.258Z,52.32
2023-04-30T23:24:08.105Z,52.33
2023-04-30T23:26:37.337Z,52.77
2023-04-30T23:29:05.222Z,52.73
2023-04-30T23:31:33.180Z,52.89
2023-04-30T23:34:01.143Z,52.75
2023-04-30T23:36:28.976Z,52.63
2023-04-30T23:38:57.084Z,52.70
2023-04-30T23:41:26.012Z,52.39
2023-04-30T23:43:55.373Z,52.51
2023-04-30T23:46:23.424Z,52.37
2023-04-30T23:48:51.935Z,51.85
2023-04-30T23:51:21.496Z,51.74
2023-04-30T23:53:49.567Z,52.33
2023-04-30T23:56:17.397Z,52.34
2023-04-30T23:58:45.256Z,51.52
